Time;durP1;ratioP1;P1;durP2;ratioP2;P2;SDS_P1;SDS_P2;PMS_P1;PMS_P2;Temp;Humidity;BMP_temperature;BMP_pressure;BME280_temperature;BME280_humidity;BME280_pressure;Samples;Min_cycle;Max_cycle;Signal;HPM_P1;HPM_P2
2022/05/08 00:00:56;;;;;;;2.45;1.02;;;7.30;99.90;;;;;;5113149;27;20097;-73
2022/05/08 00:03:22;;;;;;;3.75;1.13;;;7.30;99.90;;;;;;5129700;27;20066;-73
2022/05/08 00:05:48;;;;;;;2.60;0.70;;;7.30;99.90;;;;;;5130096;27;20042;-73
2022/05/08 00:08:14;;;;;;;3.53;0.95;;;7.40;99.90;;;;;;5094042;27;20050;-74
2022/05/08 00:10:42;;;;;;;2.00;0.90;;;7.40;99.90;;;;;;5130596;27;20078;-74
2022/05/08 00:13:09;;;;;;;1.50;0.85;;;7.40;99.90;;;;;;5128512;27;20488;-74
2022/05/08 00:15:35;;;;;;;5.07;1.55;;;7.40;99.90;;;;;;5112481;27;20038;-75
2022/05/08 00:18:01;;;;;;;;;;;7.40;99.90;;;;;;5128736;27;20058;-75
2022/05/08 00:20:27;;;;;;;5.57;1.52;;;7.50;99.90;;;;;;5110693;27;20049;-74
2022/05/08 00:22:52;;;;;;;3.38;1.27;;;7.50;99.90;;;;;;5114315;27;20042;-74
2022/05/08 00:25:20;;;;;;;10.00;2.00;;;7.50;99.90;;;;;;5111173;27;20035;-75
2022/05/08 00:27:45;;;;;;;7.60;1.80;;;7.50;99.90;;;;;;5130203;27;20063;-75
2022/05/08 00:30:12;;;;;;;6.25;1.77;;;7.50;99.90;;;;;;5128104;27;20170;-75
2022/05/08 00:32:37;;;;;;;7.72;2.00;;;7.50;99.90;;;;;;5128414;27;20047;-74
2022/05/08 00:35:04;;;;;;;7.38;1.98;;;7.60;99.90;;;;;;5111831;27;20410;-75
2022/05/08 00:37:30;;;;;;;3.05;1.23;;;7.60;99.90;;;;;;5112691;27;20039;-74
2022/05/08 00:39:56;;;;;;;4.78;1.42;;;7.60;99.90;;;;;;5129000;27;20481;-74
2022/05/08 00:42:22;;;;;;;2.67;1.10;;;7.50;99.90;;;;;;5128491;27;20128;-75
2022/05/08 00:44:47;;;;;;;5.22;1.27;;;7.50;99.90;;;;;;5129801;27;20122;-73
2022/05/08 00:47:13;;;;;;;5.13;1.48;;;7.50;99.90;;;;;;5128446;27;20119;-74
2022/05/08 00:49:39;;;;;;;6.25;1.83;;;7.50;99.90;;;;;;5127225;27;20062;-74
2022/05/08 00:52:05;;;;;;;7.22;1.95;;;7.50;99.90;;;;;;5130824;27;20046;-74
2022/05/08 00:54:31;;;;;;;;;;;7.50;99.90;;;;;;5136231;27;20031;-74
2022/05/08 00:56:57;;;;;;;6.03;2.05;;;7.50;99.90;;;;;;5134682;27;20285;-74
2022/05/08 00:59:24;;;;;;;;;;;7.50;99.90;;;;;;5119870;27;20113;-74
2022/05/08 01:01:49;;;;;;;4.75;1.40;;;7.50;99.90;;;;;;5136064;27;20282;-74
2022/05/08 01:04:15;;;;;;;2.10;0.90;;;7.40;99.90;;;;;;5116572;27;20051;-75
2022/05/08 01:06:43;;;;;;;3.65;1.05;;;7.40;99.90;;;;;;5118571;27;20035;-73
2022/05/08 01:09:09;;;;;;;3.50;1.00;;;7.30;99.90;;;;;;5144757;27;20369;-73
2022/05/08 01:11:35;;;;;;;4.65;1.40;;;7.30;99.90;;;;;;5117060;27;20047;-73
2022/05/08 01:14:01;;;;;;;4.68;1.20;;;7.30;99.90;;;;;;5138796;27;20095;-75
2022/05/08 01:16:27;;;;;;;3.97;1.42;;;7.30;99.90;;;;;;5116425;27;20045;-74
2022/05/08 01:18:52;;;;;;;3.05;1.02;;;7.20;99.90;;;;;;5119562;27;20050;-75
2022/05/08 01:21:23;;;;;;;5.93;1.20;;;7.20;99.90;;;;;;5134966;27;20039;-74
2022/05/08 01:23:48;;;;;;;4.95;1.60;;;7.20;99.90;;;;;;5135836;27;20062;-74
2022/05/08 01:26:23;;;;;;;3.38;1.02;;;7.20;99.90;;;;;;5135760;27;20168;-74
2022/05/08 01:28:49;;;;;;;3.30;1.02;;;7.20;99.90;;;;;;5126940;27;20042;-73
2022/05/08 01:31:15;;;;;;;7.60;1.70;;;7.20;99.90;;;;;;5136406;27;20042;-74
2022/05/08 01:33:40;;;;;;;4.95;1.27;;;7.20;99.90;;;;;;5135207;27;20097;-74
2022/05/08 01:36:06;;;;;;;2.72;1.00;;;7.10;99.90;;;;;;5117370;27;20096;-74
2022/05/08 01:38:32;;;;;;;1.75;0.80;;;7.10;99.90;;;;;;5134954;27;20104;-74
2022/05/08 01:41:03;;;;;;;1.20;0.57;;;7.00;99.90;;;;;;5134433;27;20047;-74
2022/05/08 01:43:36;;;;;;;1.70;0.50;;;6.90;99.90;;;;;;5134801;27;20054;-75
2022/05/08 01:46:03;;;;;;;1.55;0.70;;;6.80;99.90;;;;;;5134255;27;20125;-74
2022/05/08 01:48:30;;;;;;;1.77;0.55;;;6.70;99.90;;;;;;5134259;27;20126;-75
2022/05/08 01:50:58;;;;;;;1.80;0.70;;;6.70;99.90;;;;;;5137083;27;20114;-74
2022/05/08 01:53:26;;;;;;;1.85;0.60;;;6.60;99.90;;;;;;5116565;27;20115;-74
2022/05/08 01:55:54;;;;;;;2.38;0.80;;;6.50;99.90;;;;;;5130830;27;20485;-75
2022/05/08 01:58:21;;;;;;;1.77;0.45;;;6.50;99.90;;;;;;5135125;27;20114;-73
2022/05/08 02:00:48;;;;;;;1.30;0.52;;;6.40;99.90;;;;;;5116845;27;20485;-74
2022/05/08 02:03:14;;;;;;;0.93;0.50;;;6.40;99.90;;;;;;5133911;27;20031;-74
2022/05/08 02:05:42;;;;;;;0.80;0.40;;;6.30;99.90;;;;;;5127912;27;20130;-74
2022/05/08 02:08:08;;;;;;;0.75;0.40;;;6.30;99.90;;;;;;5132480;27;20070;-75
2022/05/08 02:10:34;;;;;;;1.10;0.40;;;6.20;99.90;;;;;;5129840;27;20138;-74
2022/05/08 02:13:00;;;;;;;0.63;0.47;;;6.20;99.90;;;;;;5130138;27;20129;-73
2022/05/08 02:15:34;;;;;;;2.42;0.60;;;6.20;99.90;;;;;;5129685;27;20046;-74
2022/05/08 02:18:02;;;;;;;2.05;0.60;;;6.10;99.90;;;;;;5133766;27;20481;-75
2022/05/08 02:20:29;;;;;;;1.27;0.50;;;6.00;99.90;;;;;;5112669;27;20039;-75
2022/05/08 02:22:54;;;;;;;2.85;0.60;;;6.00;99.90;;;;;;5143290;27;20074;-75
2022/05/08 02:25:21;;;;;;;0.70;0.43;;;5.90;99.90;;;;;;5129047;27;20142;-74
2022/05/08 02:27:49;;;;;;;1.67;0.60;;;5.90;99.90;;;;;;5131376;27;20190;-73
2022/05/08 02:30:18;;;;;;;1.67;0.50;;;5.80;99.90;;;;;;5130181;27;20619;-74
2022/05/08 02:32:44;;;;;;;1.50;0.45;;;5.80;99.90;;;;;;5130835;27;20075;-74
2022/05/08 02:35:10;;;;;;;1.55;0.52;;;5.70;99.90;;;;;;5133844;27;20507;-73
2022/05/08 02:37:37;;;;;;;1.33;0.60;;;5.70;99.90;;;;;;5146963;27;20038;-75
2022/05/08 02:40:06;;;;;;;2.40;0.60;;;5.60;99.90;;;;;;5129507;27;20486;-74
2022/05/08 02:42:32;;;;;;;0.82;0.40;;;5.50;99.90;;;;;;5131810;27;20043;-73
2022/05/08 02:44:57;;;;;;;2.17;0.60;;;5.50;99.90;;;;;;5131280;27;20042;-75
2022/05/08 02:47:23;;;;;;;0.85;0.40;;;5.40;99.90;;;;;;5131187;27;20039;-74
2022/05/08 02:49:49;;;;;;;1.65;0.50;;;5.40;99.90;;;;;;5082239;27;20058;-74
2022/05/08 02:52:15;;;;;;;1.15;0.43;;;5.40;99.90;;;;;;5112212;27;20043;-74
2022/05/08 02:54:41;;;;;;;1.00;0.50;;;5.30;99.90;;;;;;5129022;27;20035;-74
2022/05/08 02:59:51;;;;;;;2.00;0.70;;;5.30;99.90;;;;;;5129353;27;20043;-74
2022/05/08 03:02:17;;;;;;;0.70;0.50;;;5.20;99.90;;;;;;5113102;27;20054;-75
2022/05/08 03:04:43;;;;;;;2.15;0.50;;;5.20;99.90;;;;;;5131656;27;20106;-75
2022/05/08 03:07:08;;;;;;;1.35;0.63;;;5.10;99.90;;;;;;5098239;27;20051;-74
2022/05/08 03:09:34;;;;;;;1.70;0.60;;;5.10;99.90;;;;;;5128948;27;20042;-73
2022/05/08 03:12:00;;;;;;;1.60;0.52;;;5.10;99.90;;;;;;5127924;27;20054;-73
2022/05/08 03:14:25;;;;;;;0.60;0.35;;;5.00;99.90;;;;;;5129067;27;20058;-74
2022/05/08 03:16:51;;;;;;;0.90;0.32;;;5.00;99.90;;;;;;5128786;27;20031;-74
2022/05/08 03:19:19;;;;;;;1.05;0.50;;;5.00;99.90;;;;;;5129232;27;20027;-73
2022/05/08 03:21:48;;;;;;;4.85;0.80;;;5.00;99.90;;;;;;5129343;27;20424;-74
2022/05/08 03:24:14;;;;;;;1.45;0.57;;;5.10;99.90;;;;;;5129300;27;20130;-74
2022/05/08 03:26:40;;;;;;;0.82;0.40;;;5.10;99.90;;;;;;5111513;27;20054;-73
2022/05/08 03:29:07;;;;;;;1.02;0.47;;;5.10;99.90;;;;;;5129926;27;20039;-74
2022/05/08 03:31:33;;;;;;;2.03;0.47;;;5.10;99.90;;;;;;5127122;27;20146;-74
2022/05/08 03:33:59;;;;;;;0.82;0.43;;;5.10;99.90;;;;;;5112096;27;20039;-74
2022/05/08 03:36:25;;;;;;;2.10;0.80;;;5.20;99.90;;;;;;5130238;27;20087;-74
2022/05/08 03:38:51;;;;;;;1.15;0.60;;;5.20;99.90;;;;;;5127682;27;20404;-75
2022/05/08 03:41:17;;;;;;;1.88;0.60;;;5.30;99.90;;;;;;5129884;27;20458;-73
2022/05/08 03:43:45;;;;;;;1.98;0.70;;;5.30;99.90;;;;;;5129530;27;20039;-73
2022/05/08 03:46:10;;;;;;;2.92;0.80;;;5.30;99.90;;;;;;5119097;27;20142;-74
2022/05/08 03:48:36;;;;;;;2.17;0.60;;;5.30;99.90;;;;;;5129390;27;20130;-74
2022/05/08 03:51:03;;;;;;;2.72;0.60;;;5.40;99.90;;;;;;5114207;27;20043;-74
2022/05/08 03:53:29;;;;;;;0.40;0.30;;;5.40;99.90;;;;;;5109686;27;20030;-75
2022/05/08 03:55:54;;;;;;;1.10;0.40;;;5.40;99.90;;;;;;5126772;27;20032;-73
2022/05/08 03:58:20;;;;;;;1.15;0.47;;;5.40;99.90;;;;;;5127715;27;20126;-74
2022/05/08 04:00:46;;;;;;;0.52;0.30;;;5.40;99.90;;;;;;5098314;27;20217;-74
2022/05/08 04:03:12;;;;;;;0.93;0.38;;;5.40;99.90;;;;;;5129368;27;20185;-74
2022/05/08 04:05:38;;;;;;;0.47;0.30;;;5.40;99.90;;;;;;5112223;27;20122;-74
2022/05/08 04:08:04;;;;;;;0.68;0.20;;;5.40;99.90;;;;;;5111745;27;20066;-74
2022/05/08 04:10:29;;;;;;;0.45;0.30;;;5.40;99.90;;;;;;5127259;27;20066;-73
2022/05/08 04:12:56;;;;;;;0.70;0.28;;;5.40;99.90;;;;;;5128287;27;20046;-74
2022/05/08 04:18:07;;;;;;;0.73;0.40;;;5.50;99.90;;;;;;5128317;27;20047;-74
2022/05/08 04:20:33;;;;;;;1.80;0.50;;;5.40;99.90;;;;;;5131323;27;20628;-74
2022/05/08 04:25:43;;;;;;;0.77;0.30;;;5.50;99.90;;;;;;5128202;27;20072;-73
2022/05/08 04:28:08;;;;;;;0.40;0.30;;;5.50;99.90;;;;;;5128377;27;20125;-74
2022/05/08 04:30:34;;;;;;;0.55;0.30;;;5.50;99.90;;;;;;5111743;27;20471;-74
2022/05/08 04:33:01;;;;;;;1.17;0.40;;;5.50;99.90;;;;;;5110829;27;20038;-74
2022/05/08 04:35:26;;;;;;;0.35;0.20;;;5.50;99.90;;;;;;5129607;27;20806;-73
2022/05/08 04:37:52;;;;;;;1.17;0.30;;;5.60;99.90;;;;;;5129516;27;20089;-73
2022/05/08 04:40:18;;;;;;;0.70;0.32;;;5.60;99.90;;;;;;5128498;27;20466;-73
2022/05/08 04:42:43;;;;;;;0.63;0.30;;;5.60;99.90;;;;;;5100280;27;20401;-74
2022/05/08 04:45:09;;;;;;;0.95;0.40;;;5.70;99.90;;;;;;5130640;27;20070;-74
2022/05/08 04:47:35;;;;;;;0.40;0.30;;;5.70;99.90;;;;;;5128670;27;20122;-73
2022/05/08 04:50:01;;;;;;;0.95;0.43;;;5.80;99.90;;;;;;5129418;27;20557;-74
2022/05/08 04:52:26;;;;;;;0.98;0.40;;;5.80;99.90;;;;;;5128685;27;20138;-73
2022/05/08 04:54:52;;;;;;;0.98;0.50;;;6.00;99.90;;;;;;5129040;27;20038;-73
2022/05/08 04:57:18;;;;;;;2.00;0.57;;;6.00;99.90;;;;;;5130627;27;20470;-73
2022/05/08 04:59:43;;;;;;;1.33;0.75;;;6.10;99.90;;;;;;5127960;27;20046;-73
2022/05/08 05:02:09;;;;;;;1.58;0.47;;;6.20;99.90;;;;;;5126743;27;20043;-74
2022/05/08 05:04:35;;;;;;;1.95;0.80;;;6.20;99.90;;;;;;5131390;27;20094;-73
2022/05/08 05:07:01;;;;;;;1.55;0.60;;;6.30;99.90;;;;;;5128036;27;20039;-74
2022/05/08 05:09:27;;;;;;;1.48;0.60;;;6.30;99.90;;;;;;5109952;27;20039;-73
2022/05/08 05:11:53;;;;;;;1.83;0.57;;;6.40;99.90;;;;;;5128116;27;20085;-74
2022/05/08 05:14:19;;;;;;;0.90;0.45;;;6.40;99.90;;;;;;5109373;27;20470;-74
2022/05/08 05:16:46;;;;;;;0.95;0.40;;;6.40;99.90;;;;;;5112444;27;20039;-73
2022/05/08 05:19:12;;;;;;;1.55;0.38;;;6.40;99.90;;;;;;5127187;27;20401;-73
2022/05/08 05:21:38;;;;;;;1.13;0.52;;;6.50;99.90;;;;;;5127570;27;20046;-73
2022/05/08 05:24:04;;;;;;;0.55;0.30;;;6.50;99.90;;;;;;5126516;27;20054;-73
2022/05/08 05:26:29;;;;;;;0.20;0.20;;;6.60;99.90;;;;;;5095802;27;20046;-74
2022/05/08 05:28:55;;;;;;;0.60;0.38;;;6.70;99.90;;;;;;5130095;27;20034;-74
2022/05/08 05:31:22;;;;;;;0.25;0.25;;;6.70;99.90;;;;;;5126430;27;20071;-73
2022/05/08 05:33:48;;;;;;;1.08;0.50;;;6.80;99.90;;;;;;5104100;27;20038;-74
2022/05/08 05:36:14;;;;;;;3.50;0.80;;;6.90;99.90;;;;;;5127511;27;20038;-74
2022/05/08 05:38:40;;;;;;;2.40;0.80;;;7.10;99.90;;;;;;5127105;27;20454;-73
2022/05/08 05:41:06;;;;;;;2.30;0.65;;;7.40;99.90;;;;;;5129945;27;20466;-74
2022/05/08 05:43:33;;;;;;;2.75;0.93;;;7.60;99.90;;;;;;5131832;27;20039;-75
2022/05/08 05:48:43;;;;;;;4.05;1.00;;;8.00;99.90;;;;;;5131189;27;20050;-74
2022/05/08 05:51:09;;;;;;;5.85;1.40;;;8.20;99.90;;;;;;5115453;27;20047;-74
2022/05/08 05:53:35;;;;;;;3.80;1.40;;;8.40;99.90;;;;;;5112090;27;20039;-74
2022/05/08 05:56:01;;;;;;;4.90;1.30;;;8.50;99.90;;;;;;5114587;27;20031;-74
2022/05/08 05:58:27;;;;;;;3.17;0.90;;;8.60;99.90;;;;;;5131411;27;20482;-72
2022/05/08 06:00:53;;;;;;;2.80;1.30;;;8.80;99.90;;;;;;5130450;27;20057;-73
2022/05/08 06:03:19;;;;;;;5.72;1.10;;;8.80;99.90;;;;;;5113215;27;20480;-74
2022/05/08 06:05:46;;;;;;;4.30;1.23;;;8.90;99.90;;;;;;5132109;27;20394;-74
2022/05/08 06:08:12;;;;;;;3.00;0.90;;;9.00;99.90;;;;;;5128291;27;20039;-73
2022/05/08 06:10:38;;;;;;;2.90;0.90;;;9.20;99.90;;;;;;5113506;27;20054;-74
2022/05/08 06:13:03;;;;;;;3.88;1.13;;;9.30;99.90;;;;;;5129876;27;20387;-73
2022/05/08 06:15:29;;;;;;;4.97;1.10;;;9.40;99.90;;;;;;5129311;27;20045;-73
2022/05/08 06:17:55;;;;;;;3.70;0.90;;;9.30;99.90;;;;;;5130683;27;20150;-73
2022/05/08 06:20:21;;;;;;;2.25;0.88;;;9.30;99.90;;;;;;5130905;27;20047;-73
2022/05/08 06:22:47;;;;;;;3.15;0.90;;;9.50;99.90;;;;;;5131045;27;20043;-73
2022/05/08 06:25:12;;;;;;;5.13;1.10;;;9.60;99.90;;;;;;5128339;27;20115;-73
2022/05/08 06:27:38;;;;;;;3.75;1.30;;;9.70;99.90;;;;;;5128668;27;20039;-74
2022/05/08 06:30:06;;;;;;;4.30;1.17;;;9.80;99.90;;;;;;5128804;27;20046;-73
2022/05/08 06:32:34;;;;;;;5.97;1.42;;;9.80;99.90;;;;;;5128931;27;20039;-73
2022/05/08 06:34:59;;;;;;;3.65;1.10;;;9.80;99.90;;;;;;5131646;27;20462;-74
2022/05/08 06:37:25;;;;;;;4.18;1.27;;;9.90;99.90;;;;;;5130942;27;20053;-74
2022/05/08 06:39:51;;;;;;;2.42;1.08;;;9.90;99.90;;;;;;5129747;27;20035;-74
2022/05/08 06:42:16;;;;;;;3.90;1.00;;;10.00;99.90;;;;;;5128178;27;20071;-74
2022/05/08 06:44:43;;;;;;;3.45;1.10;;;10.10;99.90;;;;;;5114807;27;20046;-74
2022/05/08 06:47:08;;;;;;;4.70;1.20;;;10.10;99.90;;;;;;5134232;27;20111;-73
2022/05/08 06:49:34;;;;;;;4.25;1.20;;;10.00;99.90;;;;;;5133065;27;20082;-73
2022/05/08 06:52:00;;;;;;;5.57;1.30;;;10.00;99.90;;;;;;5133237;27;20050;-76
2022/05/08 06:54:26;;;;;;;5.32;1.30;;;10.10;99.90;;;;;;5128975;27;20067;-74
2022/05/08 06:56:53;;;;;;;5.10;1.55;;;10.20;99.90;;;;;;5132135;27;20129;-75
2022/05/08 07:02:04;;;;;;;3.40;1.02;;;10.30;99.90;;;;;;5131287;27;20120;-74
2022/05/08 07:04:30;;;;;;;4.40;1.48;;;10.30;99.90;;;;;;5114953;27;20038;-73
2022/05/08 07:06:55;;;;;;;6.72;1.48;;;10.30;99.90;;;;;;5130537;27;20073;-74
2022/05/08 07:09:21;;;;;;;7.53;1.40;;;10.40;99.90;;;;;;5132243;27;20046;-75
2022/05/08 07:11:49;;;;;;;3.00;0.90;;;10.30;99.90;;;;;;5120608;27;20866;-75
2022/05/08 07:14:16;;;;;;;4.47;1.20;;;10.40;99.90;;;;;;5134916;27;20169;-74
2022/05/08 07:16:42;;;;;;;3.00;1.08;;;10.50;99.90;;;;;;5134411;27;20069;-75
2022/05/08 07:19:08;;;;;;;3.88;1.65;;;11.00;99.90;;;;;;5137755;27;20039;-74
2022/05/08 07:21:34;;;;;;;6.43;1.17;;;11.50;99.90;;;;;;5105649;27;20043;-74
2022/05/08 07:24:00;;;;;;;3.60;1.20;;;12.00;99.90;;;;;;5132784;27;20050;-75
2022/05/08 07:26:25;;;;;;;6.85;1.70;;;12.10;99.90;;;;;;5130980;27;20078;-76
2022/05/08 07:28:51;;;;;;;4.03;1.35;;;12.20;99.90;;;;;;5131160;27;20035;-75
2022/05/08 07:31:17;;;;;;;5.18;1.40;;;12.30;99.90;;;;;;5129162;27;20405;-74
2022/05/08 07:33:43;;;;;;;4.93;1.40;;;12.60;99.90;;;;;;5129694;27;20277;-74
2022/05/08 07:36:14;;;;;;;6.85;1.40;;;12.50;99.90;;;;;;5129490;27;20053;-73
2022/05/08 07:38:45;;;;;;;6.32;2.08;;;12.30;99.90;;;;;;5120885;27;20034;-76
2022/05/08 07:41:14;;;;;;;6.20;1.42;;;12.40;99.90;;;;;;5137765;27;20127;-76
2022/05/08 07:43:42;;;;;;;2.47;1.00;;;12.10;99.90;;;;;;5134048;27;20211;-76
2022/05/08 07:46:08;;;;;;;6.25;1.83;;;12.00;99.90;;;;;;5133106;27;20058;-75
2022/05/08 07:48:33;;;;;;;6.82;1.40;;;11.50;99.90;;;;;;5118759;27;20434;-77
2022/05/08 07:51:00;;;;;;;2.85;1.13;;;11.40;99.90;;;;;;5122074;27;20507;-77
2022/05/08 07:53:28;;;;;;;4.28;1.30;;;11.20;99.90;;;;;;5133529;27;20116;-75
2022/05/08 07:55:54;;;;;;;5.65;1.33;;;11.20;99.90;;;;;;5128367;27;20153;-74
2022/05/08 07:58:21;;;;;;;5.55;1.42;;;11.30;99.90;;;;;;5131707;27;20469;-75
2022/05/08 08:00:49;;;;;;;5.30;1.73;;;11.70;99.90;;;;;;5131773;27;20046;-74
2022/05/08 08:03:16;;;;;;;6.18;1.58;;;12.20;99.90;;;;;;5129234;27;20325;-74
2022/05/08 08:05:43;;;;;;;6.78;1.52;;;12.40;99.90;;;;;;5145463;27;20355;-74
2022/05/08 08:08:09;;;;;;;4.50;1.45;;;12.40;99.90;;;;;;5114065;27;20095;-74
2022/05/08 08:10:35;;;;;;;3.55;0.90;;;12.60;99.90;;;;;;5112988;27;20436;-75
2022/05/08 08:13:01;;;;;;;5.30;1.60;;;12.70;99.90;;;;;;5136596;27;20050;-74
2022/05/08 08:15:26;;;;;;;;;;;13.00;99.90;;;;;;5132792;27;20031;-74
2022/05/08 08:17:52;;;;;;;4.93;1.52;;;13.00;99.90;;;;;;5113667;27;19915;-74
2022/05/08 08:20:18;;;;;;;5.57;1.38;;;13.20;99.90;;;;;;5133814;27;20030;-75
2022/05/08 08:22:44;;;;;;;5.65;1.60;;;13.40;99.90;;;;;;5099774;27;20035;-75
2022/05/08 08:25:10;;;;;;;6.40;1.33;;;13.40;99.90;;;;;;5113358;27;20042;-75
2022/05/08 08:27:35;;;;;;;4.90;1.45;;;13.30;99.60;;;;;;5129990;27;20512;-74
2022/05/08 08:30:03;;;;;;;5.43;1.70;;;13.00;99.90;;;;;;5098173;27;20038;-75
2022/05/08 08:32:31;;;;;;;5.05;1.85;;;12.90;99.90;;;;;;5113732;27;20046;-74
2022/05/08 08:34:57;;;;;;;8.30;1.60;;;13.10;99.90;;;;;;5129973;27;20569;-75
2022/05/08 08:37:23;;;;;;;4.97;1.50;;;13.10;99.90;;;;;;5116451;27;20037;-75
2022/05/08 08:39:49;;;;;;;8.05;2.00;;;13.10;99.90;;;;;;5130932;27;20043;-75
2022/05/08 08:42:28;;;;;;;3.65;1.52;;;12.90;99.90;;;;;;5113209;27;20087;-75
2022/05/08 08:48:06;;;;;;;5.18;1.42;;;12.90;99.90;;;;;;5131203;27;20099;-75
2022/05/08 08:50:33;;;;;;;6.22;1.60;;;13.10;99.90;;;;;;5132862;27;20142;-75
2022/05/08 08:53:05;;;;;;;4.25;1.30;;;13.10;97.70;;;;;;5133274;27;20030;-75
2022/05/08 08:55:31;;;;;;;4.75;1.63;;;13.30;98.90;;;;;;5131785;27;20053;-75
2022/05/08 08:57:57;;;;;;;6.45;1.77;;;13.30;98.30;;;;;;5113555;27;20050;-75
2022/05/08 09:00:23;;;;;;;4.28;1.42;;;13.30;99.90;;;;;;5134185;27;20034;-74
2022/05/08 09:02:54;;;;;;;7.97;1.50;;;13.40;98.80;;;;;;5115381;27;20039;-75
2022/05/08 09:05:22;;;;;;;4.97;1.58;;;13.50;98.50;;;;;;5129409;27;20046;-75
2022/05/08 09:07:50;;;;;;;7.35;1.80;;;13.60;99.00;;;;;;5128865;27;20095;-76
2022/05/08 09:10:20;;;;;;;7.53;1.58;;;13.10;96.70;;;;;;5129202;27;20043;-76
2022/05/08 09:12:52;;;;;;;6.53;1.55;;;13.40;99.10;;;;;;5128265;27;20462;-76
2022/05/08 09:15:25;;;;;;;6.63;1.40;;;13.50;97.80;;;;;;5132130;27;20047;-76
2022/05/08 09:17:56;;;;;;;5.45;1.58;;;13.60;97.50;;;;;;5120510;27;20041;-74
2022/05/08 09:20:47;;;;;;;6.47;1.50;;;14.00;97.90;;;;;;5133223;27;20043;-75
2022/05/08 09:23:17;;;;;;;4.97;1.60;;;14.20;97.80;;;;;;5147687;27;20035;-75
2022/05/08 09:26:02;;;;;;;6.30;1.52;;;14.10;97.10;;;;;;5136834;27;20056;-76
2022/05/08 09:28:37;;;;;;;7.55;1.50;;;13.90;97.10;;;;;;5135022;27;20057;-74
2022/05/08 09:31:10;;;;;;;6.95;1.88;;;14.10;97.50;;;;;;5136174;27;20080;-75
2022/05/08 09:33:44;;;;;;;6.07;1.50;;;14.10;96.80;;;;;;5135137;27;20035;-76
2022/05/08 09:36:21;;;;;;;7.18;1.83;;;14.30;96.50;;;;;;5133907;27;20043;-76
2022/05/08 09:38:52;;;;;;;8.77;2.00;;;14.40;96.00;;;;;;5115450;27;20043;-76
2022/05/08 09:41:22;;;;;;;3.78;1.40;;;14.40;96.00;;;;;;5125061;27;20343;-75
2022/05/08 09:43:53;;;;;;;6.20;1.60;;;14.70;95.50;;;;;;5135266;27;20135;-75
2022/05/08 09:46:20;;;;;;;5.93;1.80;;;14.30;94.40;;;;;;5131145;27;20146;-75
2022/05/08 09:48:46;;;;;;;5.10;1.67;;;14.50;95.60;;;;;;5129361;27;20516;-76
2022/05/08 09:51:15;;;;;;;5.03;1.52;;;14.60;95.10;;;;;;5132476;27;20658;-76
2022/05/08 09:53:42;;;;;;;7.78;1.70;;;15.00;95.20;;;;;;5130549;27;20047;-75
2022/05/08 09:56:09;;;;;;;4.88;1.85;;;14.60;94.00;;;;;;5129240;27;20043;-76
2022/05/08 09:58:36;;;;;;;9.57;2.03;;;15.10;94.50;;;;;;5131752;27;20058;-75
2022/05/08 10:01:02;;;;;;;6.03;1.80;;;15.50;93.90;;;;;;5116100;27;20035;-76
2022/05/08 10:03:29;;;;;;;;;;;15.40;92.80;;;;;;5114955;27;20047;-76
2022/05/08 10:05:55;;;;;;;5.07;1.37;;;14.90;92.40;;;;;;5131802;27;19919;-75
2022/05/08 10:08:35;;;;;;;;;;;15.10;94.10;;;;;;5130995;27;20046;-75
2022/05/08 10:13:57;;;;;;;7.50;1.60;;;15.20;93.90;;;;;;5131710;27;20084;-74
2022/05/08 10:16:47;;;;;;;8.90;2.30;;;15.20;94.20;;;;;;5113737;27;20133;-75
2022/05/08 10:19:19;;;;;;;3.58;1.30;;;14.60;93.80;;;;;;5131761;27;20058;-76
2022/05/08 10:21:57;;;;;;;5.75;1.52;;;15.10;94.10;;;;;;5131998;27;20038;-76
2022/05/08 10:24:51;;;;;;;4.32;1.63;;;14.90;93.20;;;;;;5136912;27;20038;-77
2022/05/08 10:27:31;;;;;;;6.90;1.75;;;14.90;93.60;;;;;;5121377;27;20143;-78
2022/05/08 10:29:57;;;;;;;8.82;1.58;;;14.70;94.70;;;;;;5125869;27;20046;-77
2022/05/08 10:32:31;;;;;;;7.07;2.35;;;14.60;93.20;;;;;;5135729;27;20051;-78
2022/05/08 10:35:15;;;;;;;9.25;2.00;;;14.90;94.20;;;;;;5140552;27;20533;-78
2022/05/08 10:37:49;;;;;;;6.40;2.17;;;14.80;94.20;;;;;;5130840;27;20075;-75
2022/05/08 10:40:24;;;;;;;5.55;1.60;;;14.60;94.30;;;;;;5138487;27;20103;-79
2022/05/08 10:42:56;;;;;;;5.68;1.95;;;14.90;94.70;;;;;;5122612;27;20070;-79
2022/05/08 10:45:34;;;;;;;6.55;1.27;;;15.20;93.90;;;;;;5118789;27;20102;-78
2022/05/08 10:48:07;;;;;;;5.63;1.63;;;15.70;93.80;;;;;;5119067;27;20034;-78
2022/05/08 10:50:34;;;;;;;4.95;1.40;;;15.80;93.50;;;;;;5138379;27;20959;-78
2022/05/08 10:53:00;;;;;;;4.95;1.40;;;16.10;93.20;;;;;;5139980;27;20052;-79
2022/05/08 10:55:27;;;;;;;7.75;1.63;;;16.20;92.70;;;;;;5115826;27;20023;-78
2022/05/08 10:57:55;;;;;;;5.78;1.85;;;16.40;92.30;;;;;;5116981;27;20449;-78
2022/05/08 11:00:24;;;;;;;5.30;1.70;;;16.50;90.80;;;;;;5137636;27;20421;-79
2022/05/08 11:02:55;;;;;;;5.25;1.63;;;16.50;91.20;;;;;;5132983;27;20054;-78
2022/05/08 11:05:25;;;;;;;7.47;1.70;;;16.60;90.30;;;;;;5137475;27;20830;-77
2022/05/08 11:07:51;;;;;;;6.63;2.05;;;16.70;90.30;;;;;;5134198;27;20031;-77
2022/05/08 11:10:29;;;;;;;7.95;1.90;;;16.30;90.90;;;;;;5137758;27;20043;-78
2022/05/08 11:13:09;;;;;;;5.13;1.70;;;15.80;91.30;;;;;;5142002;27;20039;-78
2022/05/08 11:15:54;;;;;;;5.43;1.40;;;16.10;92.20;;;;;;5122722;27;20433;-78
2022/05/08 11:18:24;;;;;;;5.40;1.40;;;15.80;89.40;;;;;;5136102;27;20468;-78
2022/05/08 11:20:53;;;;;;;5.95;1.60;;;15.50;89.60;;;;;;5132827;27;20039;-78
2022/05/08 11:23:24;;;;;;;6.32;1.70;;;15.50;91.00;;;;;;5131755;27;20445;-78
2022/05/08 11:25:55;;;;;;;7.40;1.80;;;15.80;92.10;;;;;;5135989;27;20037;-78
2022/05/08 11:28:22;;;;;;;6.65;1.65;;;15.90;91.70;;;;;;5120639;27;20042;-78
2022/05/08 11:30:50;;;;;;;5.97;1.63;;;16.30;90.90;;;;;;5134649;27;20102;-78
2022/05/08 11:36:04;;;;;;;7.75;1.52;;;16.10;91.60;;;;;;5115606;27;20121;-75
2022/05/08 11:38:50;;;;;;;7.55;1.70;;;16.40;91.40;;;;;;5128856;27;20130;-75
2022/05/08 11:41:21;;;;;;;7.33;2.03;;;16.60;90.40;;;;;;5130282;27;20134;-75
2022/05/08 11:43:58;;;;;;;8.15;1.70;;;16.80;89.10;;;;;;5135179;27;20031;-74
2022/05/08 11:46:38;;;;;;;4.78;1.48;;;16.20;88.40;;;;;;5130194;27;20494;-75
2022/05/08 11:49:19;;;;;;;6.60;2.05;;;16.40;90.80;;;;;;5135569;27;20062;-75
2022/05/08 11:51:46;;;;;;;5.80;1.63;;;16.80;87.90;;;;;;5130730;27;20035;-75
2022/05/08 11:54:22;;;;;;;5.85;1.60;;;17.10;86.30;;;;;;5133095;27;20035;-74
2022/05/08 11:56:51;;;;;;;7.22;1.90;;;17.20;86.80;;;;;;5132245;27;20054;-76
2022/05/08 11:59:20;;;;;;;5.38;1.70;;;17.10;88.30;;;;;;5130960;27;20046;-77
2022/05/08 12:01:53;;;;;;;6.97;1.70;;;17.10;87.20;;;;;;5129437;27;20070;-75
2022/05/08 12:04:27;;;;;;;5.63;1.33;;;17.20;88.20;;;;;;5129846;27;20046;-76
2022/05/08 12:07:07;;;;;;;5.68;1.52;;;17.10;88.60;;;;;;5129572;27;21820;-76
2022/05/08 12:09:32;;;;;;;4.43;1.58;;;16.90;87.40;;;;;;5129184;27;20066;-75
2022/05/08 12:12:23;;;;;;;6.20;1.67;;;17.10;88.50;;;;;;5133266;27;20081;-76
2022/05/08 12:14:50;;;;;;;6.90;1.85;;;17.30;85.70;;;;;;5113806;27;20045;-75
2022/05/08 12:17:16;;;;;;;5.10;1.38;;;16.80;84.50;;;;;;5128942;27;20846;-75
2022/05/08 12:20:00;;;;;;;4.72;1.50;;;16.70;84.10;;;;;;5128000;27;20109;-76
2022/05/08 12:22:28;;;;;;;5.40;1.52;;;16.60;85.60;;;;;;5131662;27;20031;-75
2022/05/08 12:24:55;;;;;;;8.02;1.92;;;16.90;87.30;;;;;;5127864;27;20390;-76
2022/05/08 12:27:22;;;;;;;4.90;1.48;;;16.60;85.80;;;;;;5127056;27;20043;-75
2022/05/08 12:29:48;;;;;;;6.07;1.80;;;17.00;87.30;;;;;;5127188;27;20558;-75
2022/05/08 12:32:15;;;;;;;4.47;1.50;;;17.00;88.90;;;;;;5127630;27;20046;-75
2022/05/08 12:34:41;;;;;;;6.30;1.58;;;17.60;85.60;;;;;;5112333;27;20035;-75
2022/05/08 12:37:12;;;;;;;5.95;1.73;;;17.40;84.50;;;;;;5127449;27;20075;-75
2022/05/08 12:39:38;;;;;;;4.47;1.30;;;17.40;86.10;;;;;;5128328;27;20042;-77
2022/05/08 12:42:05;;;;;;;5.38;1.58;;;17.40;86.10;;;;;;5112569;27;20087;-77
2022/05/08 12:44:31;;;;;;;5.85;1.50;;;17.10;82.90;;;;;;5130466;27;20039;-75
2022/05/08 12:46:58;;;;;;;6.10;1.70;;;17.40;85.90;;;;;;5129017;27;20046;-78
2022/05/08 12:49:23;;;;;;;4.85;1.50;;;17.40;85.60;;;;;;5134771;27;20410;-77
2022/05/08 12:51:49;;;;;;;5.93;1.70;;;17.40;84.10;;;;;;5138363;27;20047;-78
2022/05/08 12:54:15;;;;;;;5.38;1.48;;;17.30;82.20;;;;;;5136254;27;20031;-78
2022/05/08 12:56:43;;;;;;;6.20;1.73;;;17.10;81.10;;;;;;5119935;27;20482;-78
2022/05/08 13:01:52;;;;;;;4.88;1.40;;;16.70;81.20;;;;;;5133222;27;20054;-76
2022/05/08 13:04:18;;;;;;;3.17;1.10;;;16.60;83.90;;;;;;5111681;27;20043;-76
2022/05/08 13:06:44;;;;;;;6.82;2.25;;;17.00;85.90;;;;;;5128080;27;20103;-76
2022/05/08 13:09:10;;;;;;;5.25;1.73;;;16.40;82.20;;;;;;5113522;27;20130;-76
2022/05/08 13:11:37;;;;;;;4.57;1.25;;;16.30;85.10;;;;;;5127410;27;20035;-75
2022/05/08 13:14:03;;;;;;;6.32;1.40;;;16.70;85.30;;;;;;5127015;27;20522;-75
2022/05/08 13:16:30;;;;;;;5.30;1.45;;;17.00;80.70;;;;;;5125432;27;20604;-75
2022/05/08 13:18:56;;;;;;;5.55;1.55;;;16.70;84.40;;;;;;5131883;27;20554;-74
2022/05/08 13:21:21;;;;;;;5.97;1.58;;;17.10;86.70;;;;;;5113020;27;20039;-75